Time;durP1;ratioP1;P1;durP2;ratioP2;P2;SDS_P1;SDS_P2;PMS_P1;PMS_P2;Temp;Humidity;BMP_temperature;BMP_pressure;BME280_temperature;BME280_humidity;BME280_pressure;Samples;Min_cycle;Max_cycle;Signal;HPM_P1;HPM_P2
2022/05/13 00:03:01;;;;;;;8.20;5.90;;;;;;;8.89;67.36;99952.77;215924;1273;141968;-65
2022/05/13 00:08:05;;;;;;;12.70;6.40;;;;;;;8.92;67.37;99951.16;214948;1274;142116;-62
2022/05/13 00:13:09;;;;;;;11.10;6.70;;;;;;;8.88;67.51;99952.21;214454;1274;141682;-63
2022/05/13 00:18:13;;;;;;;12.50;6.50;;;;;;;8.91;67.46;99949.45;213452;1274;141340;-63
2022/05/13 00:23:16;;;;;;;14.80;6.00;;;;;;;8.94;67.46;99949.22;215688;1274;142181;-63
2022/05/13 00:28:19;;;;;;;10.90;5.80;;;;;;;8.86;67.29;99948.66;213701;1274;141230;-64
2022/05/13 00:33:22;;;;;;;12.40;6.90;;;;;;;8.86;67.74;99948.61;214550;1274;140567;-63
2022/05/13 00:38:25;;;;;;;8.80;5.60;;;;;;;8.84;67.90;99952.16;214599;1274;141061;-64
2022/05/13 00:43:44;;;;;;;10.20;6.40;;;;;;;8.83;67.30;99953.46;213962;1274;141005;-61
2022/05/13 00:48:48;;;;;;;8.10;5.80;;;;;;;8.75;67.95;99953.37;213354;1274;141161;-63
2022/05/13 00:53:52;;;;;;;12.10;6.60;;;;;;;8.70;67.67;99951.77;213420;1274;142811;-63
2022/05/13 00:58:58;;;;;;;6.80;5.30;;;;;;;8.61;67.95;99948.11;213359;1275;224793;-63
2022/05/13 01:04:07;;;;;;;17.60;7.00;;;;;;;8.55;68.17;99946.55;214173;1274;235553;-65
2022/05/13 01:09:13;;;;;;;9.30;5.80;;;;;;;8.51;68.30;99943.76;213635;1274;141307;-64
2022/05/13 01:14:28;;;;;;;12.10;7.10;;;;;;;8.51;68.54;99944.82;213634;1274;142603;-63
2022/05/13 01:19:32;;;;;;;9.50;7.30;;;;;;;8.49;68.49;99946.10;213499;1274;142108;-61
2022/05/13 01:24:36;;;;;;;8.30;6.30;;;;;;;8.45;68.79;99943.19;213418;1274;139513;-67
2022/05/13 01:29:39;;;;;;;8.30;7.00;;;;;;;8.38;68.77;99949.40;214881;1274;140167;-65
2022/05/13 01:34:42;;;;;;;16.90;8.30;;;;;;;8.36;69.21;99938.59;214676;1274;141176;-64
2022/05/13 01:39:44;;;;;;;13.10;8.00;;;;;;;8.40;69.23;99934.18;214093;1274;141659;-63
2022/05/13 01:44:47;;;;;;;8.90;7.60;;;;;;;8.39;69.18;99937.58;215292;1274;141492;-64
2022/05/13 01:49:50;;;;;;;8.50;5.80;;;;;;;8.36;68.81;99937.48;216168;1274;140369;-65
2022/05/13 01:54:53;;;;;;;8.20;6.90;;;;;;;8.36;69.44;99933.96;215717;1274;141159;-63
2022/05/13 01:59:56;;;;;;;11.20;7.10;;;;;;;8.39;69.66;99936.84;215836;1274;141565;-63
2022/05/13 02:04:58;;;;;;;8.60;6.10;;;;;;;8.52;69.71;99934.84;216142;1274;141370;-64
2022/05/13 02:10:02;;;;;;;8.80;7.20;;;;;;;8.60;69.91;99928.26;214748;1274;141437;-62
2022/05/13 02:15:05;;;;;;;6.90;5.80;;;;;;;8.57;69.49;99923.17;214531;1274;141898;-64
2022/05/13 02:20:10;;;;;;;12.80;6.60;;;;;;;8.50;69.52;99919.08;214137;1274;140271;-63
2022/05/13 02:25:12;;;;;;;9.20;7.50;;;;;;;8.49;69.45;99917.13;214206;1274;140833;-60
2022/05/13 02:30:15;;;;;;;9.00;6.30;;;;;;;8.47;69.37;99911.05;214192;1274;141336;-63
2022/05/13 02:35:19;;;;;;;10.40;7.50;;;;;;;8.35;69.13;99905.89;213890;1274;141097;-62
2022/05/13 02:41:11;;;;;;;9.10;7.70;;;;;;;8.24;69.27;99915.30;213174;1274;151373;-63
2022/05/13 02:45:47;;;;;;;6.50;6.00;;;;;;;8.18;69.32;99921.65;213635;1274;140288;-63
2022/05/13 02:50:50;;;;;;;10.30;6.90;;;;;;;8.10;68.95;99922.88;214203;1274;141063;-64
2022/05/13 02:55:54;;;;;;;8.10;6.70;;;;;;;7.96;69.38;99924.67;213825;1274;140362;-62
2022/05/13 03:00:58;;;;;;;12.90;7.30;;;;;;;7.81;69.21;99918.06;214180;1274;142013;-64
2022/05/13 03:06:08;;;;;;;12.90;7.10;;;;;;;7.72;69.82;99924.14;214193;1274;140834;-63
2022/05/13 03:11:11;;;;;;;10.50;6.90;;;;;;;7.64;69.26;99921.98;213636;1274;140289;-62
2022/05/13 03:16:19;;;;;;;13.30;8.60;;;;;;;7.53;69.36;99917.25;213874;1274;140838;-63
2022/05/13 03:21:23;;;;;;;6.30;5.70;;;;;;;7.46;69.70;99916.74;214317;1274;141486;-63
2022/05/13 03:26:26;;;;;;;8.60;6.10;;;;;;;7.60;69.91;99912.00;214743;1274;140685;-64
2022/05/13 03:31:28;;;;;;;6.40;4.90;;;;;;;7.75;69.92;99915.43;214217;1274;140138;-64
2022/05/13 03:36:31;;;;;;;4.80;4.40;;;;;;;7.85;69.27;99915.84;214915;1274;140504;-63
2022/05/13 03:41:34;;;;;;;7.80;5.00;;;;;;;7.82;69.57;99911.11;214338;1274;140841;-65
2022/05/13 03:46:39;;;;;;;9.80;5.70;;;;;;;8.13;69.93;99905.83;213663;1274;141082;-63
2022/05/13 03:51:42;;;;;;;30.90;7.60;;;;;;;9.04;68.65;99901.34;214172;1274;141725;-64
2022/05/13 03:56:45;;;;;;;7.00;6.40;;;;;;;9.17;68.57;99899.70;215942;1274;142688;-65
2022/05/13 04:01:48;;;;;;;8.50;5.60;;;;;;;9.30;68.28;99898.61;216168;1274;141334;-62
2022/05/13 04:17:35;;;;;;;10.90;6.70;;;;;;;11.05;67.42;99901.54;215369;1274;141490;-66
2022/05/13 04:22:38;;;;;;;8.40;6.60;;;;;;;11.93;66.56;99898.88;213338;1274;142257;-63
2022/05/13 04:27:41;;;;;;;8.30;6.50;;;;;;;12.37;65.85;99902.23;214157;1274;141333;-63
2022/05/13 04:32:46;;;;;;;11.70;7.60;;;;;;;12.38;65.65;99899.25;213973;1274;140621;-63
2022/05/13 04:37:49;;;;;;;10.00;7.60;;;;;;;12.35;65.49;99897.00;214143;1274;141269;-65
2022/05/13 04:42:51;;;;;;;10.30;7.20;;;;;;;12.56;65.77;99895.88;213976;1274;141772;-63
2022/05/13 04:53:26;;;;;;;16.60;7.10;;;;;;;13.56;64.77;99891.94;213714;1274;140974;-64
2022/05/13 04:58:31;;;;;;;8.50;5.60;;;;;;;13.87;64.05;99891.73;214207;1274;140156;-65
2022/05/13 05:03:36;;;;;;;6.30;5.70;;;;;;;13.92;64.01;99894.68;213066;1274;141708;-65
2022/05/13 05:08:39;;;;;;;6.90;5.00;;;;;;;14.03;63.54;99891.53;215111;1274;142262;-65
2022/05/13 05:13:51;;;;;;;5.80;3.80;;;;;;;15.75;61.08;99886.13;214289;1274;140200;-63
2022/05/13 05:18:56;;;;;;;5.70;3.40;;;;;;;20.32;56.70;99884.75;214199;1274;139959;-65
2022/05/13 05:24:04;;;;;;;6.40;4.00;;;;;;;24.37;51.86;99883.87;214970;1274;140072;-63
2022/05/13 05:29:08;;;;;;;6.70;3.70;;;;;;;27.31;47.11;99892.10;214862;1274;139652;-64
2022/05/13 05:34:11;;;;;;;4.20;2.70;;;;;;;29.57;42.52;99897.96;214927;1274;139866;-64
2022/05/13 05:39:14;;;;;;;3.00;2.40;;;;;;;30.92;38.79;99900.11;214039;1274;139379;-64
2022/05/13 05:44:17;;;;;;;2.20;1.90;;;;;;;32.16;36.36;99903.48;214229;1274;140345;-64
2022/05/13 05:49:21;;;;;;;3.60;2.00;;;;;;;33.00;34.34;99905.36;215810;1274;140215;-64
2022/05/13 05:59:46;;;;;;;3.70;1.20;;;;;;;33.10;30.83;99910.33;215937;1274;139436;-66
2022/05/13 06:04:49;;;;;;;2.80;1.60;;;;;;;32.07;32.03;99916.59;213492;1274;139603;-64
2022/05/13 06:09:51;;;;;;;2.40;1.80;;;;;;;31.20;32.17;99911.77;213697;1274;139699;-64
2022/05/13 06:14:53;;;;;;;2.40;1.10;;;;;;;30.42;30.82;99912.54;214520;1274;140720;-63
2022/05/13 06:19:56;;;;;;;2.30;0.90;;;;;;;29.51;31.43;99911.66;214384;1274;140578;-64
2022/05/13 06:25:02;;;;;;;1.60;1.20;;;;;;;28.17;31.95;99912.58;214782;1274;140152;-64
2022/05/13 06:30:11;;;;;;;1.30;1.10;;;;;;;27.23;32.82;99914.66;214638;1274;140860;-65
2022/05/13 06:35:19;;;;;;;3.50;1.80;;;;;;;26.25;33.23;99913.03;214641;1274;140817;-65
2022/05/13 06:40:23;;;;;;;3.30;2.10;;;;;;;25.31;33.84;99906.66;214410;1274;140749;-64
2022/05/13 06:45:26;;;;;;;2.60;1.30;;;;;;;24.02;34.32;99901.23;213717;1274;205175;-64
2022/05/13 06:50:29;;;;;;;2.80;1.60;;;;;;;23.64;34.81;99892.77;213687;1274;141474;-63
2022/05/13 06:55:33;;;;;;;1.10;1.10;;;;;;;23.71;35.26;99886.95;214299;1274;140436;-64
2022/05/13 07:00:36;;;;;;;1.90;1.10;;;;;;;24.59;35.22;99882.83;214300;1274;140405;-65
2022/05/13 07:05:40;;;;;;;3.10;1.00;;;;;;;25.97;34.17;99880.27;213668;1274;160400;-63
2022/05/13 07:10:45;;;;;;;2.60;1.00;;;;;;;26.91;32.89;99875.20;213272;1275;142014;-63
2022/05/13 07:15:49;;;;;;;2.70;0.80;;;;;;;27.46;32.45;99865.66;214290;1274;142666;-65
2022/05/13 07:20:52;;;;;;;0.90;0.90;;;;;;;27.87;31.85;99858.93;213974;1274;139640;-64
2022/05/13 07:25:57;;;;;;;2.60;1.00;;;;;;;28.18;32.11;99854.77;213332;1274;140913;-64
2022/05/13 07:31:01;;;;;;;0.90;0.80;;;;;;;28.38;31.88;99853.45;215007;1274;152926;-64
2022/05/13 07:36:05;;;;;;;4.40;1.00;;;;;;;28.50;31.43;99854.54;214445;1274;141897;-64
2022/05/13 07:41:17;;;;;;;1.50;1.10;;;;;;;28.51;31.49;99855.12;215694;1274;141231;-64
2022/05/13 07:46:21;;;;;;;1.00;0.90;;;;;;;28.33;30.94;99854.16;215654;1274;556117;-65
2022/05/13 07:51:26;;;;;;;3.00;1.20;;;;;;;27.88;30.61;99848.66;215970;1274;141548;-64
2022/05/13 07:56:30;;;;;;;0.60;0.60;;;;;;;27.63;30.73;99842.83;215834;1274;142403;-66
2022/05/13 08:01:33;;;;;;;1.40;0.90;;;;;;;27.43;30.73;99846.34;215318;1274;141005;-64
2022/05/13 08:06:36;;;;;;;3.30;1.30;;;;;;;27.25;31.09;99845.76;214977;1274;141362;-66
2022/05/13 08:11:38;;;;;;;1.80;1.20;;;;;;;27.19;31.39;99847.95;214492;1274;139496;-64
2022/05/13 08:16:42;;;;;;;1.70;1.10;;;;;;;27.24;31.08;99845.27;215032;1274;140516;-65
2022/05/13 08:21:45;;;;;;;2.70;1.30;;;;;;;27.04;31.01;99839.79;214167;1274;140940;-67
2022/05/13 08:26:48;;;;;;;2.10;1.20;;;;;;;26.70;30.90;99836.68;214126;1272;140640;-65
2022/05/13 08:31:51;;;;;;;0.80;0.80;;;;;;;26.41;30.86;99834.93;214660;1274;140641;-66
2022/05/13 08:36:54;;;;;;;1.50;1.10;;;;;;;26.11;30.98;99826.43;213749;1274;140612;-69
2022/05/13 08:42:15;;;;;;;2.60;0.90;;;;;;;26.08;31.13;99828.36;213125;1274;142631;-65
2022/05/13 08:47:28;;;;;;;5.60;1.50;;;;;;;25.93;31.15;99817.81;214465;1274;141416;-64
2022/05/13 08:58:23;;;;;;;3.30;1.40;;;;;;;26.40;31.09;99802.55;214426;1274;140815;-65
2022/05/13 09:03:59;;;;;;;1.70;1.10;;;;;;;25.91;30.68;99803.77;213802;1274;140911;-64
2022/05/13 09:09:04;;;;;;;5.20;1.50;;;;;;;25.40;31.42;99794.13;213851;1274;140642;-65
2022/05/13 09:14:30;;;;;;;2.30;1.90;;;;;;;25.28;31.63;99796.02;213254;1274;140169;-65
2022/05/13 09:19:35;;;;;;;2.40;2.10;;;;;;;25.43;31.61;99790.03;214407;1274;140571;-65
2022/05/13 09:24:39;;;;;;;3.30;1.40;;;;;;;25.27;30.90;99789.41;214754;1274;141224;-64
2022/05/13 09:30:03;;;;;;;2.50;1.80;;;;;;;24.95;31.11;99784.80;215089;1274;142839;-65
2022/05/13 09:35:28;;;;;;;2.80;2.00;;;;;;;24.48;31.07;99776.55;214896;1274;139959;-65
2022/05/13 09:40:34;;;;;;;2.10;1.90;;;;;;;24.33;31.42;99765.42;215236;1273;141093;-65
2022/05/13 09:45:37;;;;;;;14.60;2.60;;;;;;;24.69;31.71;99766.91;215266;1275;141214;-65
2022/05/13 09:50:49;;;;;;;6.10;2.10;;;;;;;25.16;31.58;99762.04;215327;1274;141269;-67
2022/05/13 09:55:56;;;;;;;2.10;1.90;;;;;;;25.12;31.78;99759.20;214770;1274;140419;-65
2022/05/13 10:01:13;;;;;;;2.50;1.40;;;;;;;25.28;32.06;99754.90;213052;1274;139757;-67
2022/05/13 10:06:19;;;;;;;2.70;1.90;;;;;;;25.79;32.12;99745.90;215121;1276;139498;-66
2022/05/13 10:16:49;;;;;;;2.50;1.80;;;;;;;25.07;30.99;99740.39;213683;1276;139498;-66
2022/05/13 10:22:03;;;;;;;2.70;1.60;;;;;;;24.58;31.22;99731.95;213245;1274;140426;-65
2022/05/13 10:27:13;;;;;;;1.80;1.50;;;;;;;24.79;31.70;99717.87;214555;1274;140148;-65
2022/05/13 10:32:27;;;;;;;1.20;1.20;;;;;;;25.09;31.73;99709.84;213447;1275;139994;-65
2022/05/13 10:37:44;;;;;;;5.80;2.10;;;;;;;24.93;30.94;99710.39;213518;1274;140248;-64
2022/05/13 10:43:01;;;;;;;3.80;1.60;;;;;;;24.63;31.26;99701.73;213259;1274;141423;-64
2022/05/13 10:48:15;;;;;;;0.80;0.80;;;;;;;24.73;31.71;99702.73;213464;1273;140723;-65
2022/05/13 10:53:55;;;;;;;2.00;1.40;;;;;;;24.55;31.15;99698.02;213969;1274;141380;-65
2022/05/13 10:59:24;;;;;;;3.70;1.50;;;;;;;24.67;31.18;99691.58;214604;1274;140574;-66
2022/05/13 11:04:30;;;;;;;5.40;1.40;;;;;;;24.87;30.60;99692.92;214267;1274;164602;-65
2022/05/13 11:09:32;;;;;;;;;;;;;;;24.54;30.92;99688.11;213860;1276;140740;-65
2022/05/13 11:15:07;;;;;;;3.90;1.80;;;;;;;24.30;31.25;99673.53;214201;1274;127201;-65
2022/05/13 11:20:19;;;;;;;2.70;1.70;;;;;;;24.12;31.73;99679.40;215055;1274;141418;-65
2022/05/13 11:31:09;;;;;;;2.30;1.50;;;;;;;24.56;31.74;99667.86;215344;1274;140367;-66
2022/05/13 11:36:42;;;;;;;;;;;;;;;24.50;31.50;99666.30;215993;1274;141915;-66
2022/05/13 11:42:05;;;;;;;1.50;1.40;;;;;;;24.26;31.56;99665.79;216541;1274;126639;-66
2022/05/13 11:47:16;;;;;;;4.10;1.50;;;;;;;24.50;31.87;99657.98;215978;1274;140528;-66
2022/05/13 11:52:19;;;;;;;2.70;1.80;;;;;;;24.87;31.94;99662.40;215894;1274;140962;-65
2022/05/13 11:57:42;;;;;;;3.00;1.90;;;;;;;24.97;31.21;99651.27;215227;1274;140660;-65
2022/05/13 12:02:55;;;;;;;5.60;1.60;;;;;;;24.85;31.25;99640.20;216248;1274;139923;-65
2022/05/13 12:08:31;;;;;;;3.10;1.90;;;;;;;24.96;31.70;99635.73;214224;1274;140123;-65
2022/05/13 12:13:54;;;;;;;1.70;1.60;;;;;;;25.06;31.53;99626.91;214481;1274;140257;-65
2022/05/13 12:19:01;;;;;;;2.80;1.50;;;;;;;24.97;31.63;99624.70;213954;1274;140833;-64
2022/05/13 12:24:19;;;;;;;10.70;2.00;;;;;;;25.03;31.56;99616.21;213096;1274;142493;-65
2022/05/13 12:29:32;;;;;;;3.10;2.00;;;;;;;24.87;31.35;99619.25;214132;1275;140766;-66
2022/05/13 12:40:34;;;;;;;8.20;1.60;;;;;;;24.50;32.19;99604.88;214242;1274;140739;-65
2022/05/13 12:45:37;;;;;;;4.50;1.90;;;;;;;24.64;32.22;99602.23;213522;1275;140496;-66
2022/05/13 12:51:08;;;;;;;5.90;2.00;;;;;;;24.61;32.14;99597.85;213812;1275;142478;-65
2022/05/13 12:56:28;;;;;;;5.60;1.90;;;;;;;24.39;32.17;99586.15;214271;1274;140433;-66
2022/05/13 13:01:32;;;;;;;2.20;1.90;;;;;;;24.21;32.31;99574.85;213689;1274;141436;-65
2022/05/13 13:06:39;;;;;;;2.40;2.00;;;;;;;24.35;32.26;99578.69;215187;1274;140666;-69
2022/05/13 13:11:55;;;;;;;5.20;1.90;;;;;;;24.64;32.71;99577.57;214588;1274;140356;-65
2022/05/13 13:17:49;;;;;;;2.70;2.20;;;;;;;24.75;32.33;99585.05;215295;1274;140788;-66
2022/05/13 13:22:58;;;;;;;6.20;2.10;;;;;;;24.60;31.64;99582.24;213629;1275;139848;-65
2022/05/13 13:28:06;;;;;;;2.20;1.40;;;;;;;24.70;31.68;99569.98;213497;1276;141843;-65
2022/05/13 13:33:09;;;;;;;2.10;2.00;;;;;;;24.99;31.92;99555.20;214098;1276;140569;-67
2022/05/13 13:38:16;;;;;;;4.70;1.80;;;;;;;25.05;31.46;99549.73;215534;1274;140761;-65
2022/05/13 13:43:23;;;;;;;6.90;1.50;;;;;;;24.88;31.43;99553.23;215849;1276;141728;-65
2022/05/13 13:48:50;;;;;;;3.10;1.90;;;;;;;24.88;31.72;99546.42;215965;1274;140787;-66
2022/05/13 13:54:01;;;;;;;2.20;1.80;;;;;;;24.91;31.66;99534.62;215886;1274;140390;-65
2022/05/13 13:59:26;;;;;;;2.30;1.70;;;;;;;24.91;31.58;99521.98;215084;1274;140319;-67
2022/05/13 14:04:31;;;;;;;1.70;1.60;;;;;;;24.76;31.79;99525.04;212906;1275;163911;-65
2022/05/13 14:09:45;;;;;;;2.70;1.60;;;;;;;24.58;31.75;99522.48;214541;1275;140268;-65
2022/05/13 14:14:54;;;;;;;5.50;2.10;;;;;;;24.24;31.84;99518.85;214547;1274;140537;-65
2022/05/13 14:20:12;;;;;;;2.50;1.60;;;;;;;23.89;32.24;99508.54;214861;1274;140040;-65
2022/05/13 14:25:14;;;;;;;6.20;1.80;;;;;;;24.06;32.25;99499.09;214397;1275;140187;-64
2022/05/13 14:30:17;;;;;;;3.60;1.50;;;;;;;24.31;32.36;99489.27;213880;1276;142138;-68
2022/05/13 14:35:27;;;;;;;2.10;1.60;;;;;;;24.28;32.18;99486.97;214401;1274;141859;-64
2022/05/13 14:40:37;;;;;;;1.70;1.60;;;;;;;24.06;32.40;99485.48;213054;1274;141021;-64
2022/05/13 14:45:42;;;;;;;3.00;1.50;;;;;;;24.00;32.76;99472.50;213305;1274;141768;-66
2022/05/13 14:51:06;;;;;;;4.10;2.00;;;;;;;23.96;32.60;99466.95;213720;1274;140826;-66
2022/05/13 14:56:14;;;;;;;11.70;2.20;;;;;;;24.01;32.94;99464.59;213552;1274;142750;-67
2022/05/13 15:01:25;;;;;;;1.70;1.50;;;;;;;24.00;33.00;99454.05;213946;1274;141247;-65
2022/05/13 15:06:33;;;;;;;2.30;2.00;;;;;;;23.78;33.16;99449.38;213046;1274;141498;-64
2022/05/13 15:11:37;;;;;;;3.90;1.70;;;;;;;23.46;33.27;99458.32;213776;1276;163700;-64
2022/05/13 15:16:41;;;;;;;2.80;1.20;;;;;;;22.98;33.13;99472.56;214196;1274;141410;-65
2022/05/13 15:21:45;;;;;;;14.40;2.80;;;;;;;22.52;33.53;99515.99;213251;1275;142415;-64
2022/05/13 15:26:48;;;;;;;10.00;2.30;;;;;;;22.20;35.57;99499.41;214811;1274;140398;-64
2022/05/13 15:31:50;;;;;;;3.10;2.00;;;;;;;22.06;37.08;99512.77;215946;1274;139739;-65
2022/05/13 15:36:52;;;;;;;6.40;2.80;;;;;;;21.73;38.23;99510.09;215167;1274;142570;-66
2022/05/13 15:41:55;;;;;;;3.90;2.70;;;;;;;21.41;39.74;99505.93;215421;1276;141055;-64
2022/05/13 15:47:02;;;;;;;9.30;3.00;;;;;;;21.04;40.90;99508.95;215134;1274;142795;-63
2022/05/13 15:52:44;;;;;;;4.50;2.90;;;;;;;20.62;42.21;99507.91;214090;1274;142743;-64
2022/05/13 15:57:56;;;;;;;3.90;3.30;;;;;;;20.28;43.24;99493.87;214130;1274;141029;-64
2022/05/13 16:03:00;;;;;;;4.00;2.90;;;;;;;20.06;44.40;99484.60;214896;1274;141395;-65
2022/05/13 16:08:05;;;;;;;12.00;4.00;;;;;;;19.83;45.49;99539.29;215108;1274;140437;-64
2022/05/13 16:13:14;;;;;;;5.60;3.50;;;;;;;19.60;46.89;99625.16;213920;1274;141501;-64
2022/05/13 16:18:22;;;;;;;5.40;4.40;;;;;;;19.04;48.12;99644.16;214108;1274;142692;-65
2022/05/13 16:23:30;;;;;;;5.00;3.40;;;;;;;18.17;48.97;99557.40;213983;1276;141452;-65
2022/05/13 16:28:33;;;;;;;3.60;3.40;;;;;;;17.72;50.77;99560.54;213414;1274;140625;-65
2022/05/13 16:33:36;;;;;;;8.20;3.60;;;;;;;17.62;51.90;99555.71;214022;1274;140917;-67
2022/05/13 16:38:39;;;;;;;5.90;3.40;;;;;;;17.70;52.45;99551.20;214607;1274;142054;-65
2022/05/13 16:43:44;;;;;;;6.50;4.20;;;;;;;17.67;53.42;99546.03;213491;1276;164760;-67
2022/05/13 16:48:47;;;;;;;7.10;4.10;;;;;;;17.59;54.32;99545.19;213822;1274;141689;-66
2022/05/13 16:53:49;;;;;;;5.70;4.30;;;;;;;17.60;55.18;99548.89;213932;1274;139733;-64
2022/05/13 16:58:53;;;;;;;4.50;4.20;;;;;;;17.59;55.98;99557.58;214289;1274;139831;-65
2022/05/13 17:03:55;;;;;;;8.20;4.30;;;;;;;17.51;56.64;99557.48;213936;1274;140290;-66
2022/05/13 17:20:01;;;;;;;4.40;4.00;;;;;;;17.01;58.30;99589.11;214713;1281;141541;-66
2022/05/13 17:25:09;;;;;;;7.80;6.30;;;;;;;16.71;58.63;99594.86;215086;1274;141593;-65
2022/05/13 17:30:15;;;;;;;5.70;5.30;;;;;;;16.54;59.34;99599.17;215805;1273;141835;-66
2022/05/13 17:35:18;;;;;;;;;;;;;;;16.49;60.02;99609.11;215214;1274;223619;-66
2022/05/13 17:40:34;;;;;;;5.80;5.40;;;;;;;16.36;60.39;99613.73;216613;1274;127456;-65
2022/05/13 17:45:38;;;;;;;6.40;5.80;;;;;;;16.14;60.94;99630.48;214294;1274;140756;-65
2022/05/13 17:50:42;;;;;;;11.90;7.10;;;;;;;16.06;61.79;99650.30;215978;1273;141402;-65
2022/05/13 17:55:48;;;;;;;6.10;5.60;;;;;;;16.02;62.33;99678.65;213347;1274;141837;-66
2022/05/13 18:00:51;;;;;;;5.60;4.90;;;;;;;15.88;62.31;99689.95;215403;1274;141898;-66
2022/05/13 18:05:55;;;;;;;12.50;5.60;;;;;;;15.72;61.70;99698.94;214292;1274;140193;-66
2022/05/13 18:10:59;;;;;;;7.60;6.10;;;;;;;15.54;61.19;99707.20;214175;1274;140386;-66
2022/05/13 18:16:03;;;;;;;5.20;4.70;;;;;;;15.37;61.15;99723.98;215099;1274;140251;-66
2022/05/13 18:21:14;;;;;;;7.30;4.30;;;;;;;15.23;60.92;99735.73;214180;1274;140081;-65
2022/05/13 18:26:18;;;;;;;6.80;4.70;;;;;;;15.07;60.61;99736.48;214757;1276;141737;-67
2022/05/13 18:31:28;;;;;;;5.60;4.80;;;;;;;14.87;60.40;99747.90;213004;1276;140878;-66
2022/05/13 18:36:35;;;;;;;6.10;5.50;;;;;;;14.67;60.19;99759.13;213209;1274;141539;-66
2022/05/13 18:47:04;;;;;;;7.10;5.60;;;;;;;14.43;60.22;99784.90;213245;1274;143080;-65
2022/05/13 18:52:17;;;;;;;7.70;6.30;;;;;;;14.38;60.03;99793.95;214172;1274;144010;-68
2022/05/13 18:57:23;;;;;;;16.20;5.90;;;;;;;14.37;60.20;99803.83;213091;1275;141437;-66
2022/05/13 19:02:27;;;;;;;7.70;5.60;;;;;;;14.37;60.44;99816.80;213223;1274;141598;-64
2022/05/13 19:07:30;;;;;;;10.00;5.30;;;;;;;14.33;60.79;99822.73;214199;1274;141134;-66
2022/05/13 19:12:34;;;;;;;8.90;6.00;;;;;;;14.29;61.01;99823.23;214484;1274;154031;-66
2022/05/13 19:17:39;;;;;;;13.60;5.70;;;;;;;14.25;61.08;99828.35;214881;1274;140251;-66
2022/05/13 19:22:42;;;;;;;8.70;5.20;;;;;;;14.21;61.18;99843.81;215368;1274;140387;-68
2022/05/13 19:27:46;;;;;;;7.40;6.40;;;;;;;14.18;61.44;99851.98;213194;1273;140219;-66
2022/05/13 19:32:49;;;;;;;4.50;4.20;;;;;;;14.16;61.78;99862.05;215527;1277;139930;-67
2022/05/13 19:37:52;;;;;;;8.20;6.10;;;;;;;14.11;61.47;99867.91;215607;1274;139985;-66
2022/05/13 19:42:55;;;;;;;8.10;6.60;;;;;;;14.10;61.70;99869.18;216027;1274;141398;-66
2022/05/13 19:48:00;;;;;;;16.20;7.50;;;;;;;14.11;61.69;99873.64;215290;1274;730450;-64
2022/05/13 19:53:03;;;;;;;9.40;7.20;;;;;;;14.09;61.99;99875.08;216101;1274;140217;-67
2022/05/13 19:58:06;;;;;;;6.50;5.70;;;;;;;14.06;61.65;99878.64;215882;1274;140708;-68
2022/05/13 20:03:15;;;;;;;7.00;6.10;;;;;;;13.97;61.25;99884.13;215475;1274;141627;-65
2022/05/13 20:13:40;;;;;;;7.80;4.90;;;;;;;13.68;61.40;99891.39;213693;1274;140317;-63
2022/05/13 20:18:44;;;;;;;5.80;5.00;;;;;;;13.57;61.48;99894.36;214772;1274;139885;-62
2022/05/13 20:23:48;;;;;;;7.60;4.80;;;;;;;13.46;61.38;99899.16;212717;1274;140100;-65
2022/05/13 20:28:52;;;;;;;7.70;4.90;;;;;;;13.36;61.34;99902.85;215062;1274;139912;-64
2022/05/13 20:33:55;;;;;;;6.00;3.50;;;;;;;13.27;61.36;99909.31;213998;1274;140448;-63
2022/05/13 20:38:58;;;;;;;6.40;3.10;;;;;;;13.17;61.06;99914.89;213106;1274;140907;-64
2022/05/13 20:44:01;;;;;;;3.30;3.10;;;;;;;13.07;61.23;99919.73;213757;1274;140285;-63
2022/05/13 20:49:08;;;;;;;6.20;4.00;;;;;;;12.93;60.84;99921.65;213229;1274;140837;-63
2022/05/13 20:54:12;;;;;;;6.60;3.00;;;;;;;12.77;61.03;99928.59;213708;1274;140330;-63
2022/05/13 20:59:18;;;;;;;4.30;2.30;;;;;;;12.63;61.08;99931.20;214472;1274;141031;-60
2022/05/13 21:04:25;;;;;;;6.90;2.40;;;;;;;12.47;61.37;99936.34;214109;1274;140638;-62
2022/05/13 21:09:28;;;;;;;6.00;3.30;;;;;;;12.25;61.49;99939.34;214802;1274;141189;-63
2022/05/13 21:14:32;;;;;;;5.30;3.10;;;;;;;12.04;61.72;99941.99;213173;1274;142588;-60
2022/05/13 21:19:36;;;;;;;5.90;3.90;;;;;;;11.82;62.19;99945.64;213019;1272;141014;-64
2022/05/13 21:24:40;;;;;;;5.50;3.70;;;;;;;11.68;62.90;99948.32;215183;1274;208165;-64
2022/05/13 21:29:43;;;;;;;3.50;3.20;;;;;;;11.45;62.98;99954.95;214534;1274;141862;-63
2022/05/13 21:40:09;;;;;;;5.60;3.50;;;;;;;10.88;63.81;99956.89;215975;1274;140614;-64
2022/05/13 21:45:13;;;;;;;5.80;3.10;;;;;;;10.75;64.30;99956.80;216073;1274;141882;-64
2022/05/13 21:50:18;;;;;;;5.20;3.40;;;;;;;10.66;64.46;99960.16;216100;1274;142417;-64
2022/05/13 21:55:22;;;;;;;5.20;2.70;;;;;;;10.52;64.56;99965.13;215170;1274;141907;-66
2022/05/13 22:00:30;;;;;;;6.20;3.50;;;;;;;10.33;64.97;99965.63;214089;1274;141026;-64
2022/05/13 22:05:34;;;;;;;2.30;2.10;;;;;;;10.17;65.33;99968.58;212973;1274;142528;-64
2022/05/13 22:10:36;;;;;;;4.60;3.70;;;;;;;9.95;65.58;99968.70;214759;1274;141729;-63
2022/05/13 22:15:39;;;;;;;3.70;3.00;;;;;;;9.77;65.96;99970.03;213838;1274;141072;-64
2022/05/13 22:20:42;;;;;;;3.90;3.50;;;;;;;9.67;66.33;99974.94;213149;1274;140756;-63
2022/05/13 22:25:45;;;;;;;5.60;2.90;;;;;;;9.58;66.60;99975.98;213749;1274;140734;-63
2022/05/13 22:30:48;;;;;;;4.00;2.80;;;;;;;9.54;67.17;99979.22;214092;1274;140129;-64
2022/05/13 22:35:51;;;;;;;6.40;3.70;;;;;;;9.55;67.77;99970.61;213129;1273;140634;-63
2022/05/13 22:40:54;;;;;;;3.00;2.80;;;;;;;9.61;68.11;99967.76;214555;1274;140720;-62
2022/05/13 22:45:59;;;;;;;4.80;4.00;;;;;;;9.56;68.03;99962.13;213860;1274;143274;-64
2022/05/13 22:51:05;;;;;;;3.30;2.90;;;;;;;9.44;68.24;99966.33;213411;1274;142088;-65
2022/05/13 22:56:10;;;;;;;4.20;3.90;;;;;;;9.45;68.52;99966.58;213544;1273;142288;-63
2022/05/13 23:01:13;;;;;;;3.60;3.30;;;;;;;9.45;68.65;99968.86;213180;1274;145616;-64
2022/05/13 23:11:37;;;;;;;2.90;2.60;;;;;;;9.13;68.54;99976.46;214957;1274;141893;-63
2022/05/13 23:16:43;;;;;;;14.00;5.10;;;;;;;8.92;68.80;99977.66;213820;1274;140719;-62
2022/05/13 23:21:47;;;;;;;5.10;4.20;;;;;;;8.89;69.27;99979.98;215122;1274;144337;-65
2022/05/13 23:26:50;;;;;;;5.80;5.20;;;;;;;8.89;69.29;99978.42;216013;1274;141420;-65
2022/05/13 23:31:53;;;;;;;5.10;3.90;;;;;;;8.79;69.42;99978.37;214943;1274;141307;-63
2022/05/13 23:36:56;;;;;;;5.30;4.00;;;;;;;8.68;69.32;99982.90;215947;1274;141363;-64
2022/05/13 23:41:59;;;;;;;7.40;3.70;;;;;;;8.60;69.46;99983.65;216106;1274;141041;-65
2022/05/13 23:47:03;;;;;;;4.40;4.00;;;;;;;8.53;69.59;99979.00;216117;1273;140604;-64
2022/05/13 23:52:06;;;;;;;4.10;3.80;;;;;;;8.47;70.01;99975.83;214779;1274;142371;-63
2022/05/13 23:57:10;;;;;;;6.30;3.90;;;;;;;8.51;69.85;99984.34;214149;1273;142068;-62
